SBOSBO ZRH / LSZH
Speedbird OnlineSpeedbird Online ZRH / LSZH

Zürich Airport
02:33 -0.6°C

Location Zurich, Switzerland
Latitude: 47.464699
Longitude: 8.54917
Web Airport Website | Wikipedia
Altitude 432 Meter / 1416 Feet
Distance 756 KM / 470 Miles
from London.
Time Zone UTC +1 hours (Europe/Zurich)
Codes IATA: ZRH
ICAO: LSZH
Currency £1 equals CHF 1.14
Runways
RunwayLength (m)Surface
102500Concrete
143300Concrete
163700Concrete
282500Concrete
323300Concrete
343700Concrete
Radio
TypeDescriptionFrequency
APPAPP118
ATISATIS125.725
CLDCLNC DEL121.8
DEPDEP125.95
GNDGND121.9
RMPAPRON121.75
TCATERMINAL127.75
TWRTWR118.1
Live ATC
METAR LSZH 270120Z AUTO 06005KT 9999 OVC017 M00/M04 Q1018 NOSIG
TAF TAF LSZH 262325Z 2700/2806 04003KT 9999 FEW014 BKN018 TX01/2714Z TNM01/2706Z TNM01/2806Z PROB30 TEMPO 2703/2709 3500 -SN SCT005 OVC013 PROB30 TEMPO 2708/2716 05010KT
Weather As Of 27 Jan 2023 02:33
Description Overcast clouds
Wind 9 km/h from North-East (60°)
Cloud Cover 100%
Precipitation Rain: none, Snow: none
Sunrise 07:58
Sunset 17:18
Lounges Marhaba Lounge, 2
Aspire Lounge (Airport Center), Between Gates A & B
Primeclass Lounge, Dock E
Aspire Lounge (Dock E) , Dock E, Midfield Terminal, Gates E
Rotations During the last 90 days there were
429 flights from LHR
191 flights from LCY
426 flights to LHR
170 flights to LCY
1 flights to LGW



Support Speedbird Online

© 2017-2023 Speedbird Online